Hampton, NH

12:54 PM EST on December 25, 2014 (GMT -0500)
Hampton Airfield 7B3 | Change Station
CLOSE
Current Station
Personal Weather Station
Location: North Hampton, NH
Elevation: 93 ft
Nearby Weather Stations
Active Advisory: Coastal Flood Statement Active Notice: Public Information Statement

Elev 93 ft 42.96 °N, 70.83 °W | Updated 51 seconds ago

Mostly Cloudy
Mostly Cloudy
51.3 °F
Feels Like 51.3 °F
N
21.0
Wind Variable Wind from West
Gusts 35.0 mph

Today
High -- | Low -- °F
--% Chance of Precip.
Yesterday
High -- | Low -- °F
Precip. -- in
7:12 AM 4:14 PM
Waxing Crescent, 18% visible
Pressure 29.53 in
Visibility 10.0 miles
Clouds Few 3000 ft
Mostly Cloudy 20000 ft
Dew Point 35 °F
Humidity 55%
Rainfall 0.15 in
Snow Depth Not available.
UV 1 out of 12
Pollen .10 out of 12
Air Quality Not available.
Flu Activity Not available.
METAR KPSM 251658Z 26011G23KT 10SM FEW030 BKN200 10/03 A2952 RMK AO2A SLP000 T00960034

More Conditions Fewer Conditions

Pressure 29.53 in
Visibility 10.0 miles
Clouds Few 3000 ft
Mostly Cloudy 20000 ft
Dew Point 35 °F
Humidity 55%
Rainfall 0.15 in
Snow Depth Not available.
UV 1 out of 12
Pollen .10 out of 12
Air Quality Not available.
Flu Activity Not available.
METAR KPSM 251658Z 26011G23KT 10SM FEW030 BKN200 10/03 A2952 RMK AO2A SLP000 T00960034

More Conditions Fewer Conditions

10-Day Weather Forecast

Almanac

Astronomy

Dec. 25, 2014 Rise Set
Actual Time
Civil Twilight
Nautical Twilight
Astronomical Twilight
Moon
Length of Visible Light
Length of Day
Tomorrow will be .
, % of the Moon is Illuminated

Today's Extremes

State Highs State Lows

Community

WunderPhotos

Upload Photos

1,780,351 photos uploaded!

WunderBlogs® & News

Nearby

Air Quality

  Air Quality AQ Index Pollutant
Not available.

Snow Depth

Station Depth Elevation

Earthquake Activity

City Distance Mag. Time & Date
Minimum magnitude displayed is 2.5.

Coastal Water Temperatures

Place Temperature

Nearby Weather Stations